createdAt,value
2023-02-28T00:01:23.691Z,9.75
2023-02-28T00:03:51.393Z,9.35
2023-02-28T00:06:19.359Z,9.68
2023-02-28T00:08:47.455Z,9.60
2023-02-28T00:11:16.866Z,9.02
2023-02-28T00:13:49.197Z,9.35
2023-02-28T00:16:20.684Z,8.40
2023-02-28T00:18:48.916Z,9.25
2023-02-28T00:21:18.249Z,9.63
2023-02-28T00:23:46.105Z,8.85
2023-02-28T00:26:14.159Z,9.48
2023-02-28T00:28:45.817Z,9.05
2023-02-28T00:31:13.522Z,9.88
2023-02-28T00:33:41.147Z,10.20
2023-02-28T00:36:11.458Z,9.60
2023-02-28T00:38:40.313Z,8.30
2023-02-28T00:41:08.582Z,7.75
2023-02-28T00:43:38.266Z,7.25
2023-02-28T00:46:06.445Z,7.70
2023-02-28T00:48:34.169Z,7.90
2023-02-28T00:51:02.452Z,6.85
2023-02-28T00:53:30.685Z,7.68
2023-02-28T00:55:59.689Z,9.77
2023-02-28T00:58:27.939Z,11.27
2023-02-28T01:00:56.151Z,12.32
2023-02-28T01:03:24.685Z,11.80
2023-02-28T01:05:54.265Z,12.57
2023-02-28T01:08:22.586Z,12.55
2023-02-28T01:10:52.431Z,11.55
2023-02-28T01:13:20.987Z,10.48
2023-02-28T01:15:54.382Z,9.98
2023-02-28T01:18:24.021Z,10.63
2023-02-28T01:20:53.492Z,10.00
2023-02-28T01:23:24.254Z,9.43
2023-02-28T01:25:53.082Z,9.63
2023-02-28T01:28:21.161Z,9.65
2023-02-28T01:30:50.448Z,8.80
2023-02-28T01:33:18.196Z,9.02
2023-02-28T01:35:45.809Z,9.40
2023-02-28T01:38:22.048Z,9.30
2023-02-28T01:40:50.875Z,9.15
2023-02-28T01:43:44.631Z,8.43
2023-02-28T01:46:14.391Z,8.68
2023-02-28T01:48:45.803Z,7.72
2023-02-28T01:51:19.580Z,8.55
2023-02-28T01:53:50.260Z,8.82
2023-02-28T01:56:24.320Z,9.77
2023-02-28T01:58:53.878Z,9.32
2023-02-28T02:01:23.524Z,9.77
2023-02-28T02:04:03.714Z,9.93
2023-02-28T02:06:43.271Z,9.15
2023-02-28T02:09:12.210Z,8.85
2023-02-28T02:11:43.218Z,9.07
2023-02-28T02:14:17.017Z,10.30
2023-02-28T02:17:12.511Z,10.32
2023-02-28T02:20:28.776Z,8.07
2023-02-28T02:23:25.663Z,7.22
2023-02-28T02:26:27.765Z,7.43
2023-02-28T02:31:53.193Z,5.90
2023-02-28T02:34:29.858Z,4.75
2023-02-28T02:37:22.625Z,4.85
2023-02-28T02:40:01.792Z,5.28
2023-02-28T02:43:08.135Z,4.60
2023-02-28T02:45:59.113Z,4.70
2023-02-28T02:48:30.455Z,5.15
2023-02-28T02:51:02.687Z,4.90
2023-02-28T02:56:06.444Z,4.57
2023-02-28T02:58:43.077Z,5.20
2023-02-28T03:01:17.092Z,5.53
2023-02-28T03:03:45.231Z,4.68
2023-02-28T03:06:14.358Z,5.40
2023-02-28T03:08:41.826Z,5.63
2023-02-28T03:11:16.568Z,5.15
2023-02-28T03:13:53.109Z,5.85
2023-02-28T03:16:37.367Z,6.22
2023-02-28T03:19:14.977Z,6.32
2023-02-28T03:22:01.031Z,5.47
2023-02-28T03:24:53.073Z,5.13
2023-02-28T03:30:06.044Z,6.13
2023-02-28T03:33:00.123Z,7.15
2023-02-28T03:35:35.367Z,6.60
2023-02-28T03:38:15.020Z,8.05
2023-02-28T03:40:51.282Z,6.95
2023-02-28T03:43:25.993Z,6.25
2023-02-28T03:45:56.865Z,5.85
2023-02-28T03:48:44.689Z,5.57
2023-02-28T03:51:18.255Z,6.30
2023-02-28T03:53:52.408Z,5.65
2023-02-28T03:56:53.965Z,6.32
2023-02-28T03:59:35.174Z,5.18
2023-02-28T04:02:03.913Z,6.88
2023-02-28T04:04:31.467Z,5.47
2023-02-28T04:07:05.108Z,6.32
2023-02-28T04:09:33.108Z,7.00
2023-02-28T04:12:01.126Z,6.85
2023-02-28T04:14:29.188Z,6.18
2023-02-28T04:16:57.038Z,6.68
2023-02-28T04:19:24.934Z,7.15
2023-02-28T04:21:53.982Z,7.70
2023-02-28T04:24:27.410Z,7.55
2023-02-28T04:26:57.763Z,6.78
2023-02-28T04:29:28.119Z,7.32
2023-02-28T04:31:59.073Z,6.70
2023-02-28T04:34:31.279Z,7.50
2023-02-28T04:37:12.372Z,7.90
2023-02-28T04:39:42.066Z,9.85
2023-02-28T04:42:09.722Z,7.70
2023-02-28T04:44:37.368Z,8.25
2023-02-28T04:47:05.683Z,8.30
2023-02-28T04:49:33.774Z,8.13
2023-02-28T04:52:01.293Z,8.82
2023-02-28T04:54:29.442Z,8.52
2023-02-28T04:56:57.306Z,9.13
2023-02-28T04:59:25.262Z,9.32
2023-02-28T05:01:53.142Z,10.02
2023-02-28T05:04:21.031Z,10.95
2023-02-28T05:06:48.847Z,10.20
2023-02-28T05:09:16.321Z,10.32
2023-02-28T05:11:44.259Z,10.40
2023-02-28T05:14:14.243Z,14.35
2023-02-28T05:16:41.912Z,11.57
2023-02-28T05:19:09.725Z,12.10
2023-02-28T05:21:42.517Z,11.35
2023-02-28T05:24:13.343Z,12.57
2023-02-28T05:26:43.063Z,12.13
2023-02-28T05:29:11.130Z,13.43
2023-02-28T05:31:39.123Z,13.43
2023-02-28T05:34:07.065Z,13.77
2023-02-28T05:36:35.055Z,12.13
2023-02-28T05:39:02.953Z,12.65
2023-02-28T05:41:31.192Z,12.13
2023-02-28T05:44:00.722Z,12.85
2023-02-28T05:46:28.301Z,12.73
2023-02-28T05:48:58.845Z,11.73
2023-02-28T05:51:26.735Z,12.10
2023-02-28T05:53:54.765Z,14.10
2023-02-28T05:56:22.305Z,10.98
2023-02-28T05:58:49.923Z,10.77
2023-02-28T06:01:39.251Z,11.70
2023-02-28T06:04:12.566Z,10.75
2023-02-28T06:06:48.465Z,11.75
2023-02-28T06:09:16.396Z,11.68
2023-02-28T06:11:44.345Z,13.13
2023-02-28T06:14:17.663Z,12.73
2023-02-28T06:16:45.429Z,12.57
2023-02-28T06:19:13.707Z,13.02
2023-02-28T06:21:41.247Z,12.85
2023-02-28T06:24:09.056Z,11.80
2023-02-28T06:26:37.105Z,12.48
2023-02-28T06:29:04.966Z,11.60
2023-02-28T06:31:33.372Z,11.57
2023-02-28T06:34:01.304Z,10.68
2023-02-28T06:36:29.309Z,13.30
2023-02-28T06:38:57.208Z,16.58
2023-02-28T06:41:26.629Z,11.73
2023-02-28T06:43:54.372Z,10.75
2023-02-28T06:46:22.495Z,11.25
2023-02-28T06:48:50.151Z,11.15
2023-02-28T06:51:21.462Z,10.40
2023-02-28T06:53:49.506Z,10.90
2023-02-28T06:56:18.717Z,10.30
2023-02-28T06:58:51.540Z,10.10
2023-02-28T07:01:20.176Z,10.73
2023-02-28T07:03:53.071Z,10.43
2023-02-28T07:06:23.691Z,12.98
2023-02-28T07:08:55.593Z,10.82
2023-02-28T07:11:26.732Z,12.10
2023-02-28T07:13:57.986Z,11.07
2023-02-28T07:16:27.015Z,10.85
2023-02-28T07:18:55.887Z,8.75
2023-02-28T07:21:24.052Z,11.65
2023-02-28T07:23:52.427Z,12.35
2023-02-28T07:26:21.025Z,10.98
2023-02-28T07:28:49.593Z,12.65
2023-02-28T07:31:18.186Z,10.27
2023-02-28T07:33:46.031Z,11.75
2023-02-28T07:36:16.561Z,11.70
2023-02-28T07:38:48.494Z,12.23
2023-02-28T07:41:18.392Z,11.98
2023-02-28T07:43:46.636Z,11.85
2023-02-28T07:46:17.333Z,13.00
2023-02-28T07:48:45.579Z,10.50
2023-02-28T07:51:13.278Z,11.90
2023-02-28T07:53:40.989Z,11.00
2023-02-28T07:56:09.106Z,10.20
2023-02-28T07:58:37.081Z,10.45
2023-02-28T08:01:10.743Z,10.27
2023-02-28T08:03:39.779Z,10.77
2023-02-28T08:06:09.565Z,10.07
2023-02-28T08:08:37.209Z,9.88
2023-02-28T08:11:05.387Z,10.43
2023-02-28T08:13:33.337Z,8.10
2023-02-28T08:16:02.862Z,10.73
2023-02-28T08:18:30.926Z,9.93
2023-02-28T08:20:58.888Z,10.50
2023-02-28T08:23:26.431Z,10.00
2023-02-28T08:25:55.761Z,9.57
2023-02-28T08:28:25.559Z,9.00
2023-02-28T08:30:56.268Z,9.57
2023-02-28T08:33:24.457Z,8.30
2023-02-28T08:35:58.326Z,8.32
2023-02-28T08:38:26.407Z,8.02
2023-02-28T08:41:06.895Z,8.57
2023-02-28T08:43:36.114Z,9.30
2023-02-28T08:46:04.603Z,8.77
2023-02-28T08:48:34.637Z,8.20
2023-02-28T08:51:09.036Z,8.35
2023-02-28T08:53:38.291Z,8.23
2023-02-28T08:56:09.674Z,8.35
2023-02-28T08:58:37.978Z,7.50
2023-02-28T09:01:14.162Z,7.97
2023-02-28T09:03:47.109Z,8.10
2023-02-28T09:06:16.256Z,6.35
2023-02-28T09:08:44.077Z,6.95
2023-02-28T09:11:12.726Z,6.10
2023-02-28T09:13:41.475Z,5.82
2023-02-28T09:16:12.184Z,6.05
2023-02-28T09:18:40.692Z,5.80
2023-02-28T09:21:12.755Z,5.97
2023-02-28T09:23:40.672Z,5.40
2023-02-28T09:26:09.001Z,5.72
2023-02-28T09:28:36.977Z,5.85
2023-02-28T09:31:05.889Z,5.68
2023-02-28T09:33:35.300Z,6.30
2023-02-28T09:36:04.956Z,6.65
2023-02-28T09:38:33.070Z,6.13
2023-02-28T09:41:04.501Z,5.07
2023-02-28T09:43:39.529Z,5.15
2023-02-28T09:46:22.004Z,5.03
2023-02-28T09:48:50.466Z,5.07
2023-02-28T09:51:18.033Z,4.60
2023-02-28T09:53:47.915Z,3.78
2023-02-28T09:56:37.070Z,3.63
2023-02-28T09:59:13.660Z,4.03
2023-02-28T10:02:09.509Z,3.97
2023-02-28T10:05:00.708Z,3.25
2023-02-28T10:07:34.126Z,4.25
2023-02-28T10:10:09.875Z,2.97
2023-02-28T10:12:42.809Z,3.03
2023-02-28T10:15:16.492Z,3.20
2023-02-28T10:17:55.434Z,2.72
2023-02-28T10:20:32.152Z,2.70
2023-02-28T10:23:08.562Z,2.45
2023-02-28T10:25:38.580Z,3.88
2023-02-28T10:28:18.959Z,2.40
2023-02-28T10:30:52.516Z,2.45
2023-02-28T10:33:27.294Z,3.13
2023-02-28T10:35:55.286Z,2.92
2023-02-28T10:38:26.501Z,3.63
2023-02-28T10:41:08.310Z,2.95
2023-02-28T10:43:37.050Z,2.90
2023-02-28T10:46:15.942Z,2.53
2023-02-28T10:49:01.369Z,2.55
2023-02-28T10:51:37.560Z,2.20
2023-02-28T10:54:06.279Z,2.55
2023-02-28T10:56:34.836Z,2.72
2023-02-28T10:59:31.704Z,2.90
2023-02-28T11:02:00.100Z,2.42
2023-02-28T11:04:30.860Z,2.65
2023-02-28T11:07:01.436Z,2.60
2023-02-28T11:09:35.884Z,2.30
2023-02-28T11:12:07.241Z,1.75
2023-02-28T11:14:49.162Z,2.13
2023-02-28T11:17:23.276Z,1.95
2023-02-28T11:20:08.621Z,1.75
2023-02-28T11:22:41.129Z,1.77
2023-02-28T11:25:31.556Z,1.60
2023-02-28T11:28:02.624Z,1.52
2023-02-28T11:30:35.603Z,1.40
2023-02-28T11:33:23.550Z,1.50
2023-02-28T11:35:52.539Z,1.55
2023-02-28T11:38:20.133Z,1.40
2023-02-28T11:40:56.683Z,1.30
2023-02-28T11:43:24.886Z,1.80
2023-02-28T11:46:28.283Z,1.42
2023-02-28T11:49:04.625Z,1.50
2023-02-28T11:51:36.556Z,1.30
2023-02-28T11:54:19.222Z,1.25
2023-02-28T11:56:55.165Z,1.63
2023-02-28T11:59:42.117Z,1.60
2023-02-28T12:02:36.294Z,1.70
2023-02-28T12:05:21.620Z,1.63
2023-02-28T12:08:07.249Z,1.48
2023-02-28T12:10:54.228Z,1.50
2023-02-28T12:13:33.520Z,3.38
2023-02-28T12:16:16.419Z,1.85
2023-02-28T12:19:09.110Z,2.00
2023-02-28T12:21:50.971Z,1.23
2023-02-28T12:26:51.785Z,1.50
2023-02-28T12:29:30.503Z,1.70
2023-02-28T12:32:06.440Z,1.50
2023-02-28T12:34:42.797Z,1.90
2023-02-28T12:37:30.932Z,1.65
2023-02-28T12:40:08.810Z,3.03
2023-02-28T12:42:59.377Z,1.70
2023-02-28T12:45:50.919Z,1.90
2023-02-28T12:48:39.968Z,1.92
2023-02-28T12:51:09.515Z,1.42
2023-02-28T12:53:49.997Z,1.48
2023-02-28T12:56:46.665Z,2.58
2023-02-28T12:59:44.950Z,1.40
2023-02-28T13:02:15.541Z,1.40
2023-02-28T13:05:20.380Z,1.42
2023-02-28T13:08:20.460Z,1.77
2023-02-28T13:10:55.226Z,2.08
2023-02-28T13:13:25.597Z,1.40
2023-02-28T13:16:09.045Z,1.50
2023-02-28T13:18:40.834Z,2.47
2023-02-28T13:21:10.707Z,3.03
2023-02-28T13:24:01.992Z,1.60
2023-02-28T13:26:32.406Z,1.83
2023-02-28T13:29:11.941Z,2.25
2023-02-28T13:32:20.321Z,3.25
2023-02-28T13:35:07.944Z,2.42
2023-02-28T13:37:44.645Z,3.72
2023-02-28T13:40:12.263Z,2.35
2023-02-28T13:42:46.109Z,2.80
2023-02-28T13:45:13.817Z,2.10
2023-02-28T13:47:53.793Z,1.83
2023-02-28T13:50:27.444Z,1.40
2023-02-28T13:53:16.296Z,1.42
2023-02-28T13:55:50.185Z,1.85
2023-02-28T13:59:01.018Z,1.80
2023-02-28T14:01:53.166Z,1.98
2023-02-28T14:04:35.491Z,1.70
2023-02-28T14:07:04.342Z,1.90
2023-02-28T14:09:40.156Z,2.50
2023-02-28T14:12:46.014Z,1.70
2023-02-28T14:15:48.094Z,1.42
2023-02-28T14:20:53.296Z,1.77
2023-02-28T14:23:36.841Z,2.30
2023-02-28T14:26:15.683Z,1.75
2023-02-28T14:29:04.819Z,2.25
2023-02-28T14:32:03.576Z,2.22
2023-02-28T14:34:31.549Z,3.00
2023-02-28T14:37:02.491Z,2.00
2023-02-28T14:39:33.887Z,1.90
2023-02-28T14:42:05.688Z,2.00
2023-02-28T14:44:33.585Z,2.20
2023-02-28T14:47:06.670Z,2.00
2023-02-28T14:49:43.133Z,2.80
2023-02-28T14:52:10.979Z,1.80
2023-02-28T14:54:39.887Z,1.90
2023-02-28T14:57:21.290Z,1.60
2023-02-28T15:00:11.630Z,1.30
2023-02-28T15:02:40.624Z,2.35
2023-02-28T15:05:20.035Z,2.97
2023-02-28T15:07:50.298Z,1.77
2023-02-28T15:10:28.135Z,1.30
2023-02-28T15:13:00.397Z,1.90
2023-02-28T15:16:01.334Z,1.60
2023-02-28T15:18:44.889Z,1.80
2023-02-28T15:21:17.775Z,2.90
2023-02-28T15:24:25.626Z,1.85
2023-02-28T15:26:59.690Z,1.60
2023-02-28T15:29:30.120Z,2.58
2023-02-28T15:32:04.072Z,2.05
2023-02-28T15:34:45.868Z,1.90
2023-02-28T15:40:24.670Z,1.50
2023-02-28T15:43:17.323Z,1.55
2023-02-28T15:46:10.725Z,1.92
2023-02-28T15:48:45.390Z,2.60
2023-02-28T15:51:13.398Z,2.10
2023-02-28T15:53:46.625Z,2.20
2023-02-28T15:56:36.556Z,2.42
2023-02-28T15:59:08.157Z,1.65
2023-02-28T16:04:16.965Z,1.77
2023-02-28T16:07:00.620Z,1.77
2023-02-28T16:09:28.500Z,1.50
2023-02-28T16:11:59.895Z,1.67
2023-02-28T16:14:31.047Z,1.65
2023-02-28T16:17:06.687Z,1.45
2023-02-28T16:19:34.895Z,1.58
2023-02-28T16:22:02.678Z,1.65
2023-02-28T16:24:30.304Z,1.42
2023-02-28T16:26:58.389Z,2.05
2023-02-28T16:29:32.993Z,1.70
2023-02-28T16:32:02.211Z,1.65
2023-02-28T16:34:30.125Z,2.17
2023-02-28T16:36:57.731Z,2.10
2023-02-28T16:39:25.629Z,2.45
2023-02-28T16:41:53.668Z,2.38
2023-02-28T16:44:34.881Z,1.92
2023-02-28T16:47:04.840Z,2.00
2023-02-28T16:49:33.018Z,1.48
2023-02-28T16:52:01.006Z,1.77
2023-02-28T16:54:28.425Z,2.00
2023-02-28T16:56:56.483Z,1.65
2023-02-28T16:59:27.244Z,2.33
2023-02-28T17:01:57.860Z,2.05
2023-02-28T17:04:28.969Z,3.05
2023-02-28T17:06:56.629Z,1.75
2023-02-28T17:09:36.532Z,2.15
2023-02-28T17:12:10.157Z,1.60
2023-02-28T17:14:38.075Z,2.30
2023-02-28T17:17:06.760Z,1.63
2023-02-28T17:19:37.061Z,1.63
2023-02-28T17:22:04.698Z,2.38
2023-02-28T17:24:32.298Z,2.03
2023-02-28T17:27:00.331Z,2.35
2023-02-28T17:29:27.812Z,6.15
2023-02-28T17:31:56.287Z,5.15
2023-02-28T17:34:24.226Z,3.53
2023-02-28T17:36:53.184Z,2.75
2023-02-28T17:39:25.277Z,1.80
2023-02-28T17:41:56.728Z,1.90
2023-02-28T17:44:25.189Z,1.80
2023-02-28T17:46:54.398Z,1.80
2023-02-28T17:49:22.166Z,1.85
2023-02-28T17:51:51.417Z,1.40
2023-02-28T17:54:19.424Z,1.88
2023-02-28T17:56:47.459Z,1.80
2023-02-28T17:59:15.395Z,1.98
2023-02-28T18:01:42.889Z,1.73
2023-02-28T18:04:10.598Z,1.73
2023-02-28T18:06:47.544Z,1.30
2023-02-28T18:09:16.489Z,1.60
2023-02-28T18:11:49.054Z,1.58
2023-02-28T18:14:17.697Z,1.70
2023-02-28T18:16:46.508Z,2.00
2023-02-28T18:19:18.038Z,1.75
2023-02-28T18:21:48.012Z,1.70
2023-02-28T18:24:16.842Z,2.20
2023-02-28T18:26:45.087Z,1.75
2023-02-28T18:29:31.748Z,2.10
2023-02-28T18:31:59.665Z,2.05
2023-02-28T18:34:28.423Z,2.50
2023-02-28T18:36:57.294Z,2.00
2023-02-28T18:39:25.186Z,2.35
2023-02-28T18:41:52.705Z,2.20
2023-02-28T18:44:21.485Z,2.35
2023-02-28T18:46:50.449Z,3.10
2023-02-28T18:49:18.776Z,3.28
2023-02-28T18:51:46.904Z,2.80
2023-02-28T18:54:16.119Z,3.30
2023-02-28T18:56:44.025Z,3.00
2023-02-28T18:59:12.663Z,3.63
2023-02-28T19:01:41.116Z,3.00
2023-02-28T19:04:13.542Z,3.78
2023-02-28T19:06:42.236Z,2.47
2023-02-28T19:09:10.272Z,2.75
2023-02-28T19:11:38.306Z,3.10
2023-02-28T19:14:06.209Z,3.00
2023-02-28T19:16:33.948Z,2.80
2023-02-28T19:19:01.976Z,2.72
2023-02-28T19:21:29.981Z,2.92
2023-02-28T19:23:57.497Z,2.58
2023-02-28T19:26:27.083Z,2.13
2023-02-28T19:28:55.118Z,2.92
2023-02-28T19:31:25.262Z,2.80
2023-02-28T19:33:53.353Z,2.20
2023-02-28T19:36:22.315Z,1.92
2023-02-28T19:38:50.639Z,1.73
2023-02-28T19:41:18.949Z,1.77
2023-02-28T19:43:47.811Z,2.28
2023-02-28T19:46:15.566Z,2.13
2023-02-28T19:48:44.909Z,2.03
2023-02-28T19:51:14.062Z,1.60
2023-02-28T19:53:43.155Z,1.92
2023-02-28T19:56:11.874Z,1.80
2023-02-28T19:58:40.497Z,1.90
2023-02-28T20:01:13.988Z,2.35
2023-02-28T20:03:42.197Z,2.22
2023-02-28T20:06:13.862Z,2.30
2023-02-28T20:08:42.371Z,2.85
2023-02-28T20:11:12.766Z,2.70
2023-02-28T20:13:40.503Z,2.58
2023-02-28T20:16:10.342Z,2.60
2023-02-28T20:18:39.515Z,2.63
2023-02-28T20:21:12.022Z,3.00
2023-02-28T20:23:40.460Z,3.67
2023-02-28T20:26:08.575Z,3.15
2023-02-28T20:28:36.879Z,4.05
2023-02-28T20:31:11.953Z,4.18
2023-02-28T20:33:40.822Z,3.83
2023-02-28T20:36:10.184Z,3.85
2023-02-28T20:38:38.516Z,4.65
2023-02-28T20:41:07.039Z,4.38
2023-02-28T20:43:35.242Z,4.47
2023-02-28T20:46:03.637Z,3.50
2023-02-28T20:48:32.279Z,3.72
2023-02-28T20:51:00.434Z,3.53
2023-02-28T20:53:28.374Z,3.65
2023-02-28T20:55:58.998Z,3.72
2023-02-28T20:58:32.189Z,4.65
2023-02-28T21:01:27.384Z,4.60
2023-02-28T21:04:03.624Z,4.80
2023-02-28T21:06:34.285Z,5.50
2023-02-28T21:09:04.046Z,6.17
2023-02-28T21:11:34.114Z,5.82
2023-02-28T21:14:04.659Z,5.70
2023-02-28T21:16:33.242Z,4.82
2023-02-28T21:19:04.706Z,5.50
2023-02-28T21:21:43.955Z,3.88
2023-02-28T21:24:13.938Z,4.00
2023-02-28T21:26:42.624Z,3.65
2023-02-28T21:29:10.849Z,4.43
2023-02-28T21:31:38.832Z,3.58
2023-02-28T21:34:08.136Z,3.25
2023-02-28T21:36:41.927Z,3.38
2023-02-28T21:39:14.824Z,3.30
2023-02-28T21:41:42.673Z,4.15
2023-02-28T21:44:18.338Z,4.15
2023-02-28T21:46:48.411Z,3.60
2023-02-28T21:49:16.738Z,3.92
2023-02-28T21:51:44.844Z,3.47
2023-02-28T21:54:12.828Z,3.40
2023-02-28T21:56:40.791Z,3.60
2023-02-28T21:59:09.705Z,4.03
2023-02-28T22:01:44.111Z,3.58
2023-02-28T22:04:21.315Z,3.97
2023-02-28T22:06:53.189Z,3.50
2023-02-28T22:11:48.654Z,2.78
2023-02-28T22:14:16.699Z,2.88
2023-02-28T22:16:54.433Z,3.67
2023-02-28T22:19:23.463Z,3.35
2023-02-28T22:21:53.705Z,3.17
2023-02-28T22:24:24.400Z,3.97
2023-02-28T22:26:52.994Z,2.78
2023-02-28T22:29:21.126Z,3.13
2023-02-28T22:31:49.270Z,3.78
2023-02-28T22:34:17.325Z,2.85
2023-02-28T22:36:45.047Z,3.03
2023-02-28T22:39:13.040Z,3.40
2023-02-28T22:41:40.872Z,2.90
2023-02-28T22:44:08.411Z,3.00
2023-02-28T22:46:36.672Z,2.90
2023-02-28T22:49:05.638Z,2.47
2023-02-28T22:51:34.297Z,2.60
2023-02-28T22:54:02.236Z,3.15
2023-02-28T22:56:30.862Z,2.78
2023-02-28T22:59:00.725Z,3.05
2023-02-28T23:01:31.426Z,3.17
2023-02-28T23:03:59.604Z,3.70
2023-02-28T23:06:33.628Z,3.60
2023-02-28T23:09:04.418Z,4.57
2023-02-28T23:11:35.221Z,3.60
2023-02-28T23:14:03.833Z,4.27
2023-02-28T23:16:48.995Z,4.90
2023-02-28T23:19:29.849Z,4.72
2023-02-28T23:21:59.417Z,4.40
2023-02-28T23:24:29.878Z,4.18
2023-02-28T23:27:01.293Z,4.13
2023-02-28T23:29:29.677Z,4.82
2023-02-28T23:31:57.688Z,4.22
2023-02-28T23:34:30.658Z,4.60
2023-02-28T23:37:00.251Z,4.43
2023-02-28T23:39:29.772Z,4.88
2023-02-28T23:41:58.672Z,4.55
2023-02-28T23:44:26.277Z,4.10
2023-02-28T23:46:54.354Z,3.75
2023-02-28T23:49:22.357Z,4.03
2023-02-28T23:51:51.611Z,3.88
2023-02-28T23:54:19.675Z,3.90
2023-02-28T23:56:47.798Z,4.05
2023-02-28T23:59:15.702Z,3.63
